Time;durP1;ratioP1;P1;durP2;ratioP2;P2;SDS_P1;SDS_P2;PMS_P1;PMS_P2;Temp;Humidity;BMP_temperature;BMP_pressure;BME280_temperature;BME280_humidity;BME280_pressure;Samples;Min_cycle;Max_cycle;Signal;HPM_P1;HPM_P2
2021/09/05 00:01:44;;;;;;;6.82;4.05;;;;;20.90;101873.00;;;;5004592;28;20216;-79
2021/09/05 00:04:11;;;;;;;7.05;4.68;;;;;20.90;101877.00;;;;5004026;28;20689;-79
2021/09/05 00:06:39;;;;;;;8.90;5.10;;;;;20.90;101883.00;;;;5008489;28;20193;-79
2021/09/05 00:09:06;;;;;;;8.07;4.80;;;;;20.90;101878.00;;;;5008046;28;20208;-79
2021/09/05 00:11:33;;;;;;;8.25;4.68;;;;;20.90;101877.00;;;;5007256;28;20243;-79
2021/09/05 00:14:01;;;;;;;7.35;4.90;;;;;20.80;101880.00;;;;5006699;28;20205;-79
2021/09/05 00:16:30;;;;;;;6.53;4.47;;;;;20.80;101883.00;;;;5007544;28;20267;-79
2021/09/05 00:18:59;;;;;;;6.60;4.47;;;;;20.80;101882.00;;;;5008187;28;20235;-80
2021/09/05 00:21:26;;;;;;;8.88;4.90;;;;;20.80;101887.00;;;;5007747;28;20201;-79
2021/09/05 00:23:53;;;;;;;9.00;4.82;;;;;20.80;101888.00;;;;5007721;28;20201;-79
2021/09/05 00:26:21;;;;;;;6.03;4.07;;;;;20.70;101879.00;;;;5008865;28;20200;-80
2021/09/05 00:28:48;;;;;;;8.60;5.00;;;;;20.70;101880.00;;;;5007073;28;20243;-79
2021/09/05 00:31:15;;;;;;;6.50;4.22;;;;;20.70;101881.00;;;;5007140;28;20220;-79
2021/09/05 00:33:42;;;;;;;7.65;4.05;;;;;20.70;101878.00;;;;5006508;28;20193;-80
2021/09/05 00:36:12;;;;;;;8.63;4.40;;;;;20.60;101880.00;;;;5007658;28;20204;-79
2021/09/05 00:38:39;;;;;;;8.80;4.50;;;;;20.60;101883.00;;;;4997007;28;21132;-79
2021/09/05 00:41:06;;;;;;;9.10;4.85;;;;;20.60;101872.00;;;;5008379;28;20192;-79
2021/09/05 00:43:48;;;;;;;11.77;5.45;;;;;20.60;101873.00;;;;5007227;28;20208;-79
2021/09/05 00:46:16;;;;;;;6.38;4.60;;;;;20.60;101877.00;;;;5005986;28;20200;-79
2021/09/05 00:48:43;;;;;;;6.55;4.40;;;;;20.50;101878.00;;;;5007329;28;20205;-79
2021/09/05 00:51:12;;;;;;;8.02;4.45;;;;;20.50;101877.00;;;;5007857;28;20424;-79
2021/09/05 00:53:40;;;;;;;6.97;4.95;;;;;20.50;101876.00;;;;5006423;28;20204;-79
2021/09/05 00:56:07;;;;;;;7.03;4.30;;;;;20.50;101871.00;;;;5002002;28;20458;-79
2021/09/05 00:58:35;;;;;;;8.27;5.03;;;;;20.40;101865.00;;;;5007840;28;20197;-79
2021/09/05 01:01:03;;;;;;;8.68;4.82;;;;;20.40;101875.00;;;;5007153;28;20208;-79
2021/09/05 01:03:30;;;;;;;7.85;4.85;;;;;20.40;101875.00;;;;5010394;28;20223;-79
2021/09/05 01:05:57;;;;;;;7.03;4.75;;;;;20.40;101877.00;;;;5011935;28;20193;-79
2021/09/05 01:08:27;;;;;;;7.05;4.60;;;;;20.30;101870.00;;;;5008254;28;20204;-79
2021/09/05 01:10:54;;;;;;;7.43;4.38;;;;;20.40;101872.00;;;;5009817;28;20224;-79
2021/09/05 01:13:22;;;;;;;7.85;5.32;;;;;20.30;101870.00;;;;5010745;28;20568;-79
2021/09/05 01:15:49;;;;;;;6.88;4.53;;;;;20.30;101875.00;;;;5009105;28;20201;-79
2021/09/05 01:18:17;;;;;;;8.02;4.68;;;;;20.30;101880.00;;;;5011148;28;20232;-78
2021/09/05 01:20:44;;;;;;;8.00;4.43;;;;;20.30;101885.00;;;;5011649;28;20209;-78
2021/09/05 01:23:11;;;;;;;7.75;5.00;;;;;20.20;101886.00;;;;5011166;28;20224;-79
2021/09/05 01:25:40;;;;;;;7.63;4.35;;;;;20.20;101879.00;;;;5007540;28;20194;-78
2021/09/05 01:28:11;;;;;;;8.25;5.05;;;;;20.20;101880.00;;;;5005451;28;20674;-78
2021/09/05 01:30:38;;;;;;;9.13;4.90;;;;;20.20;101884.00;;;;5009234;28;20197;-78
2021/09/05 01:33:05;;;;;;;9.93;4.82;;;;;20.20;101882.00;;;;5011145;28;20208;-79
2021/09/05 01:35:35;;;;;;;10.63;4.90;;;;;20.10;101885.00;;;;5010785;28;20199;-79
2021/09/05 01:38:02;;;;;;;7.30;4.80;;;;;20.10;101877.00;;;;5008238;28;20197;-79
2021/09/05 01:40:30;;;;;;;6.60;4.38;;;;;20.10;101888.00;;;;5010262;28;20204;-79
2021/09/05 01:42:59;;;;;;;7.63;4.88;;;;;20.10;101879.00;;;;5011133;28;20193;-78
2021/09/05 01:45:28;;;;;;;7.40;4.93;;;;;20.10;101875.00;;;;5004285;28;20221;-78
2021/09/05 01:47:55;;;;;;;8.55;4.35;;;;;20.00;101881.00;;;;5010849;28;20685;-79
2021/09/05 01:50:22;;;;;;;8.88;4.45;;;;;20.00;101876.00;;;;5011472;28;20201;-78
2021/09/05 01:52:50;;;;;;;7.07;4.57;;;;;20.00;101892.00;;;;5010281;28;20221;-78
2021/09/05 01:55:17;;;;;;;6.68;4.57;;;;;20.00;101887.00;;;;5010599;28;20205;-78
2021/09/05 01:57:44;;;;;;;7.95;4.85;;;;;20.00;101883.00;;;;5010211;28;20193;-79
2021/09/05 02:00:12;;;;;;;7.95;4.63;;;;;20.00;101887.00;;;;5010545;28;20647;-79
2021/09/05 02:02:41;;;;;;;11.65;5.05;;;;;20.00;101890.00;;;;5006407;28;20220;-79
2021/09/05 02:05:09;;;;;;;7.63;4.72;;;;;20.00;101887.00;;;;5003428;28;20213;-78
2021/09/05 02:07:36;;;;;;;7.22;4.65;;;;;19.90;101891.00;;;;5010699;28;20205;-78
2021/09/05 02:10:05;;;;;;;8.02;5.60;;;;;19.90;101887.00;;;;5009746;28;20201;-78
2021/09/05 02:12:32;;;;;;;6.35;4.43;;;;;19.90;101890.00;;;;5008225;28;20283;-78
2021/09/05 02:14:59;;;;;;;9.70;4.93;;;;;19.90;101893.00;;;;5003460;28;20216;-78
2021/09/05 02:17:27;;;;;;;9.20;5.47;;;;;19.90;101885.00;;;;5009804;28;20208;-79
2021/09/05 02:19:55;;;;;;;10.90;4.97;;;;;19.80;101893.00;;;;5003067;28;20220;-79
2021/09/05 02:22:22;;;;;;;7.32;5.00;;;;;19.80;101890.00;;;;5008759;28;20213;-78
2021/09/05 02:24:50;;;;;;;8.55;5.28;;;;;19.80;101889.00;;;;5009562;28;20205;-78
2021/09/05 02:27:17;;;;;;;8.07;5.30;;;;;19.80;101893.00;;;;5010271;28;20216;-78
2021/09/05 02:29:44;;;;;;;7.80;4.82;;;;;19.80;101896.00;;;;5009561;28;20225;-78
2021/09/05 02:32:11;;;;;;;9.32;4.50;;;;;19.70;101895.00;;;;5006865;28;20220;-78
2021/09/05 02:34:39;;;;;;;8.43;4.97;;;;;19.70;101907.00;;;;5010563;28;20195;-79
2021/09/05 02:37:09;;;;;;;7.68;5.10;;;;;19.70;101901.00;;;;5009664;28;20208;-78
2021/09/05 02:39:36;;;;;;;10.93;5.57;;;;;19.70;101898.00;;;;5010049;28;20255;-78
2021/09/05 02:42:04;;;;;;;6.60;4.57;;;;;19.70;101903.00;;;;5007026;28;20200;-79
2021/09/05 02:44:31;;;;;;;7.68;5.53;;;;;19.70;101903.00;;;;5009604;28;20189;-78
2021/09/05 02:46:59;;;;;;;9.00;5.72;;;;;19.60;101897.00;;;;5009827;28;20213;-78
2021/09/05 02:49:27;;;;;;;7.82;5.25;;;;;19.60;101894.00;;;;5009815;28;20201;-78
2021/09/05 02:51:55;;;;;;;9.32;4.65;;;;;19.60;101894.00;;;;5009644;28;20601;-79
2021/09/05 02:54:23;;;;;;;8.60;5.25;;;;;19.60;101895.00;;;;5010607;28;20193;-79
2021/09/05 02:56:50;;;;;;;8.50;5.32;;;;;19.60;101895.00;;;;5009016;28;20193;-79
2021/09/05 02:59:18;;;;;;;11.18;5.05;;;;;19.60;101890.00;;;;5009683;28;20196;-79
2021/09/05 03:01:45;;;;;;;8.02;5.53;;;;;19.60;101896.00;;;;5006944;28;20208;-78
2021/09/05 03:04:12;;;;;;;8.05;5.05;;;;;19.60;101890.00;;;;5008785;28;20205;-79
2021/09/05 03:06:39;;;;;;;9.75;6.38;;;;;19.50;101889.00;;;;5009146;28;20192;-78
2021/09/05 03:09:06;;;;;;;8.70;4.95;;;;;19.60;101893.00;;;;5005260;28;20189;-78
2021/09/05 03:11:35;;;;;;;9.68;5.60;;;;;19.50;101891.00;;;;5009144;28;20224;-79
2021/09/05 03:14:02;;;;;;;10.38;5.78;;;;;19.50;101893.00;;;;5007900;28;20577;-79
2021/09/05 03:16:30;;;;;;;8.10;4.90;;;;;19.50;101887.00;;;;5008642;28;20205;-78
2021/09/05 03:18:57;;;;;;;7.50;5.38;;;;;19.50;101886.00;;;;5008724;28;20236;-78
2021/09/05 03:21:24;;;;;;;7.75;4.90;;;;;19.50;101896.00;;;;5009175;28;20193;-79
2021/09/05 03:23:51;;;;;;;9.13;6.00;;;;;19.50;101894.00;;;;5009011;28;20208;-79
2021/09/05 03:26:18;;;;;;;9.32;6.10;;;;;19.50;101893.00;;;;5009065;28;20201;-79
2021/09/05 03:28:47;;;;;;;6.47;4.80;;;;;19.40;101887.00;;;;5007607;28;21004;-79
2021/09/05 03:31:14;;;;;;;10.45;4.85;;;;;19.50;101892.00;;;;5008106;28;20216;-78
2021/09/05 03:33:42;;;;;;;8.13;5.00;;;;;19.40;101891.00;;;;5007370;28;20275;-79
2021/09/05 03:36:09;;;;;;;8.15;4.93;;;;;19.40;101898.00;;;;5007792;28;20210;-78
2021/09/05 03:38:36;;;;;;;8.90;4.90;;;;;19.40;101898.00;;;;5008073;28;20223;-79
2021/09/05 03:41:04;;;;;;;6.65;4.38;;;;;19.40;101893.00;;;;4992509;28;20209;-78
2021/09/05 03:43:31;;;;;;;7.53;5.10;;;;;19.40;101893.00;;;;5008849;28;20197;-78
2021/09/05 03:45:59;;;;;;;7.28;5.13;;;;;19.40;101895.00;;;;5008063;28;20197;-79
2021/09/05 03:48:27;;;;;;;8.82;5.07;;;;;19.40;101896.00;;;;5001833;28;20205;-78
2021/09/05 03:50:54;;;;;;;10.38;5.72;;;;;19.30;101897.00;;;;5001656;28;20205;-78
2021/09/05 03:53:21;;;;;;;6.82;4.70;;;;;19.30;101888.00;;;;5008733;28;20324;-78
2021/09/05 03:55:49;;;;;;;8.25;4.60;;;;;19.30;101898.00;;;;5009160;28;20205;-79
2021/09/05 03:58:16;;;;;;;9.40;5.10;;;;;19.30;101901.00;;;;5008550;28;20201;-78
2021/09/05 04:00:43;;;;;;;9.80;5.10;;;;;19.30;101891.00;;;;4995067;28;20206;-79
2021/09/05 04:03:12;;;;;;;9.25;5.15;;;;;19.30;101893.00;;;;5005802;28;20205;-79
2021/09/05 04:05:39;;;;;;;8.02;5.10;;;;;19.30;101899.00;;;;5008461;28;20208;-78
2021/09/05 04:08:15;;;;;;;9.30;5.00;;;;;19.30;101902.00;;;;5004274;28;20200;-78
2021/09/05 04:10:42;;;;;;;7.53;4.93;;;;;19.30;101898.00;;;;4992282;28;20198;-78
2021/09/05 04:13:11;;;;;;;10.25;5.40;;;;;19.20;101893.00;;;;5007810;28;20232;-78
2021/09/05 04:15:38;;;;;;;8.27;5.03;;;;;19.20;101893.00;;;;5008344;28;20675;-78
2021/09/05 04:18:05;;;;;;;7.00;4.68;;;;;19.20;101892.00;;;;5000864;28;20608;-78
2021/09/05 04:20:34;;;;;;;8.88;5.35;;;;;19.20;101900.00;;;;5005193;28;20201;-78
2021/09/05 04:23:01;;;;;;;9.55;5.47;;;;;19.20;101903.00;;;;5008246;28;20220;-79
2021/09/05 04:25:28;;;;;;;8.05;5.07;;;;;19.20;101900.00;;;;5008772;28;20196;-79
2021/09/05 04:27:57;;;;;;;9.85;5.28;;;;;19.10;101901.00;;;;5004397;28;20566;-79
2021/09/05 04:30:24;;;;;;;8.63;5.10;;;;;19.10;101902.00;;;;5008889;28;20196;-79
2021/09/05 04:32:51;;;;;;;11.70;4.93;;;;;19.10;101905.00;;;;5006780;28;20232;-79
2021/09/05 04:35:19;;;;;;;8.20;5.63;;;;;19.10;101895.00;;;;5008585;28;20275;-78
2021/09/05 04:37:47;;;;;;;8.02;5.72;;;;;19.10;101902.00;;;;5010311;28;20745;-79
2021/09/05 04:40:15;;;;;;;7.50;5.40;;;;;19.10;101894.00;;;;5012052;28;20209;-79
2021/09/05 04:42:42;;;;;;;9.25;4.95;;;;;19.10;101903.00;;;;5011245;28;20192;-79
2021/09/05 04:45:10;;;;;;;8.38;5.18;;;;;19.10;101906.00;;;;5012181;28;20663;-79
2021/09/05 04:47:38;;;;;;;7.80;5.25;;;;;19.10;101907.00;;;;5010267;28;20212;-79
2021/09/05 04:50:05;;;;;;;7.93;5.18;;;;;19.10;101920.00;;;;5011519;28;20200;-79
2021/09/05 04:52:33;;;;;;;8.88;5.38;;;;;19.00;101910.00;;;;5011424;28;20228;-79
2021/09/05 04:55:01;;;;;;;9.25;5.53;;;;;19.00;101918.00;;;;5006110;28;20638;-79
2021/09/05 04:57:29;;;;;;;6.60;4.75;;;;;19.00;101913.00;;;;5010928;28;20690;-79
2021/09/05 04:59:56;;;;;;;7.78;4.50;;;;;19.00;101914.00;;;;4996290;28;20189;-78
2021/09/05 05:02:23;;;;;;;6.68;4.53;;;;;19.00;101916.00;;;;5011077;28;20685;-79
2021/09/05 05:04:50;;;;;;;8.02;5.10;;;;;19.00;101906.00;;;;5011409;28;20204;-78
2021/09/05 05:07:19;;;;;;;9.30;5.47;;;;;19.00;101917.00;;;;5011829;28;20189;-78
2021/09/05 05:09:46;;;;;;;9.00;5.57;;;;;19.00;101910.00;;;;5009083;28;20201;-77
2021/09/05 05:12:14;;;;;;;7.40;4.88;;;;;19.00;101914.00;;;;5010823;28;20221;-79
2021/09/05 05:14:42;;;;;;;11.43;5.05;;;;;19.00;101920.00;;;;5010462;28;20650;-79
2021/09/05 05:17:09;;;;;;;7.80;5.03;;;;;19.00;101915.00;;;;5011536;28;20201;-78
2021/09/05 05:19:36;;;;;;;8.48;5.00;;;;;19.00;101923.00;;;;5010861;28;20233;-78
2021/09/05 05:22:04;;;;;;;8.10;4.93;;;;;19.00;101923.00;;;;5012013;28;20209;-78
2021/09/05 05:24:31;;;;;;;6.93;4.78;;;;;19.00;101922.00;;;;5011392;28;20205;-78
2021/09/05 05:26:59;;;;;;;8.15;5.15;;;;;19.00;101927.00;;;;5012252;28;20227;-78
2021/09/05 05:29:27;;;;;;;9.65;5.88;;;;;18.90;101928.00;;;;5000292;28;20197;-78
2021/09/05 05:31:55;;;;;;;7.38;5.18;;;;;18.90;101934.00;;;;5010705;28;20201;-78
2021/09/05 05:34:22;;;;;;;8.95;5.40;;;;;18.90;101929.00;;;;5011056;28;20585;-79
2021/09/05 05:36:49;;;;;;;10.55;6.10;;;;;18.90;101931.00;;;;5009216;28;20289;-78
2021/09/05 05:39:16;;;;;;;8.10;5.13;;;;;18.90;101927.00;;;;5010640;28;20192;-79
2021/09/05 05:41:44;;;;;;;8.10;5.32;;;;;18.90;101934.00;;;;5011089;28;20208;-78
2021/09/05 05:44:11;;;;;;;9.20;5.32;;;;;18.90;101930.00;;;;5010574;28;20932;-78
2021/09/05 05:46:39;;;;;;;9.15;5.13;;;;;18.90;101933.00;;;;5010665;28;20208;-79
2021/09/05 05:49:07;;;;;;;11.40;6.10;;;;;18.90;101937.00;;;;5009546;28;20197;-79
2021/09/05 05:51:34;;;;;;;9.23;5.88;;;;;18.90;101930.00;;;;4992562;28;20202;-79
2021/09/05 05:54:01;;;;;;;8.05;5.10;;;;;18.90;101936.00;;;;5010515;28;20224;-79
2021/09/05 05:56:28;;;;;;;7.68;5.25;;;;;18.90;101940.00;;;;5009831;28;20675;-79
2021/09/05 05:58:56;;;;;;;8.23;5.70;;;;;18.90;101934.00;;;;5008115;28;20212;-79
2021/09/05 06:01:23;;;;;;;8.10;5.25;;;;;19.00;101934.00;;;;5009028;28;20189;-79
2021/09/05 06:03:51;;;;;;;8.63;5.43;;;;;19.00;101937.00;;;;5007160;28;20668;-79
2021/09/05 06:06:19;;;;;;;9.98;5.55;;;;;19.00;101935.00;;;;5010920;28;20201;-78
2021/09/05 06:08:46;;;;;;;10.68;4.75;;;;;19.00;101938.00;;;;5009953;28;20239;-78
2021/09/05 06:11:13;;;;;;;8.60;5.75;;;;;19.10;101933.00;;;;5008215;28;20216;-78
2021/09/05 06:13:41;;;;;;;8.35;5.30;;;;;19.10;101942.00;;;;5010510;28;20228;-79
2021/09/05 06:16:08;;;;;;;8.45;4.88;;;;;19.10;101934.00;;;;5007219;28;20204;-78
2021/09/05 06:18:35;;;;;;;7.22;5.35;;;;;19.10;101941.00;;;;4995599;28;20237;-79
2021/09/05 06:21:04;;;;;;;6.85;4.70;;;;;19.20;101936.00;;;;5008662;28;20207;-77
2021/09/05 06:23:31;;;;;;;8.48;5.38;;;;;19.20;101944.00;;;;5008261;28;20228;-81
2021/09/05 06:25:58;;;;;;;7.60;5.20;;;;;19.30;101938.00;;;;5014551;28;20196;-80
2021/09/05 06:28:25;;;;;;;8.02;4.97;;;;;19.30;101944.00;;;;5010683;28;20193;-78
2021/09/05 06:30:53;;;;;;;8.75;4.95;;;;;19.30;101943.00;;;;5010706;28;20201;-80
2021/09/05 06:33:20;;;;;;;7.40;5.55;;;;;19.40;101950.00;;;;5008352;28;20227;-80
2021/09/05 06:35:47;;;;;;;8.75;5.60;;;;;19.40;101942.00;;;;5010487;28;20193;-78
2021/09/05 06:38:16;;;;;;;10.05;5.97;;;;;19.50;101949.00;;;;5008973;28;20208;-80
2021/09/05 06:40:43;;;;;;;9.88;5.57;;;;;19.50;101956.00;;;;5009496;28;20209;-80
2021/09/05 06:43:11;;;;;;;9.00;5.40;;;;;19.60;101955.00;;;;5009112;28;20660;-80
2021/09/05 06:45:38;;;;;;;8.65;5.38;;;;;19.60;101959.00;;;;5002792;28;20201;-79
2021/09/05 06:48:06;;;;;;;7.55;5.45;;;;;19.70;101955.00;;;;5006261;28;20209;-78
2021/09/05 06:50:33;;;;;;;11.00;5.28;;;;;19.80;101966.00;;;;4994528;28;20760;-80
2021/09/05 06:53:01;;;;;;;9.35;5.10;;;;;19.80;101970.00;;;;5010284;28;20224;-79
2021/09/05 06:55:29;;;;;;;11.82;5.50;;;;;19.90;101972.00;;;;5008528;28;20560;-80
2021/09/05 06:57:57;;;;;;;7.75;5.40;;;;;20.00;101976.00;;;;5004367;28;20197;-79
2021/09/05 07:00:24;;;;;;;6.53;5.10;;;;;20.00;101970.00;;;;5009393;28;20204;-79
2021/09/05 07:02:51;;;;;;;7.80;4.93;;;;;20.10;101969.00;;;;5009687;28;20216;-79
2021/09/05 07:05:18;;;;;;;11.80;5.88;;;;;20.20;101972.00;;;;5009617;28;20212;-79
2021/09/05 07:07:46;;;;;;;6.85;5.00;;;;;20.20;101972.00;;;;4998079;28;20386;-80
2021/09/05 07:10:14;;;;;;;7.13;4.95;;;;;20.30;101979.00;;;;5009611;28;20205;-79
2021/09/05 07:12:43;;;;;;;7.00;4.95;;;;;20.40;101981.00;;;;5008908;28;20252;-79
2021/09/05 07:15:11;;;;;;;7.50;5.57;;;;;20.50;101987.00;;;;5008874;28;20224;-79
2021/09/05 07:17:39;;;;;;;9.15;5.43;;;;;20.60;101985.00;;;;5007599;28;20209;-79
2021/09/05 07:20:07;;;;;;;9.50;5.45;;;;;20.60;101988.00;;;;5008278;28;20196;-79
2021/09/05 07:22:34;;;;;;;8.15;5.10;;;;;20.70;101988.00;;;;4995144;28;20261;-78
2021/09/05 07:25:02;;;;;;;8.60;5.07;;;;;20.80;101989.00;;;;4994488;28;20204;-80
2021/09/05 07:27:30;;;;;;;8.23;5.43;;;;;20.80;101986.00;;;;4991187;28;20205;-79
2021/09/05 07:29:59;;;;;;;10.80;5.50;;;;;20.90;101983.00;;;;5000377;28;20201;-79
2021/09/05 07:32:26;;;;;;;8.88;5.78;;;;;21.00;101995.00;;;;4999195;28;20202;-79
2021/09/05 07:34:53;;;;;;;10.23;5.75;;;;;21.10;101997.00;;;;5002063;28;20193;-80
2021/09/05 07:37:20;;;;;;;12.15;6.00;;;;;21.20;102004.00;;;;5001154;28;20197;-79
2021/09/05 07:39:47;;;;;;;9.18;5.30;;;;;21.20;102010.00;;;;5007892;28;20204;-80
2021/09/05 07:42:15;;;;;;;9.15;4.93;;;;;21.30;102012.00;;;;5008120;28;20674;-79
2021/09/05 07:44:42;;;;;;;8.93;4.95;;;;;21.40;102006.00;;;;5010006;28;20204;-79
2021/09/05 07:47:11;;;;;;;6.13;4.53;;;;;21.40;102016.00;;;;5007228;28;20205;-79
2021/09/05 07:49:38;;;;;;;8.23;4.88;;;;;21.60;102010.00;;;;5001999;28;20205;-78
2021/09/05 07:52:05;;;;;;;8.35;5.72;;;;;21.70;102019.00;;;;5001277;28;20219;-80
2021/09/05 07:54:33;;;;;;;11.48;6.13;;;;;21.70;102022.00;;;;4999272;28;20229;-78
2021/09/05 07:57:00;;;;;;;6.72;4.88;;;;;21.80;102027.00;;;;5000668;28;20220;-78
2021/09/05 07:59:27;;;;;;;7.78;5.32;;;;;22.00;102029.00;;;;5004001;28;20205;-78
2021/09/05 08:01:54;;;;;;;8.60;5.18;;;;;22.00;102039.00;;;;5007248;28;20209;-78
2021/09/05 08:04:23;;;;;;;7.88;5.45;;;;;22.10;102036.00;;;;5008301;28;20201;-80
2021/09/05 08:06:50;;;;;;;8.15;5.45;;;;;22.20;102037.00;;;;5007694;28;20205;-79
2021/09/05 08:09:18;;;;;;;9.93;5.60;;;;;22.30;102040.00;;;;5007270;28;20204;-79
2021/09/05 08:11:45;;;;;;;9.95;5.72;;;;;22.40;102046.00;;;;5005897;28;20209;-79
2021/09/05 08:14:12;;;;;;;9.95;5.68;;;;;22.50;102051.00;;;;5006173;28;20227;-78
2021/09/05 08:16:39;;;;;;;10.82;5.80;;;;;22.60;102050.00;;;;5007680;28;20634;-79
2021/09/05 08:19:07;;;;;;;7.03;5.03;;;;;22.70;102052.00;;;;4998995;28;20236;-79
2021/09/05 08:21:35;;;;;;;8.13;4.53;;;;;22.80;102053.00;;;;5005137;28;20216;-79
2021/09/05 08:24:05;;;;;;;8.07;5.22;;;;;22.90;102056.00;;;;5007124;28;20219;-78
2021/09/05 08:26:32;;;;;;;8.60;4.78;;;;;23.00;102064.00;;;;4998199;28;20396;-78
2021/09/05 08:29:00;;;;;;;7.75;4.57;;;;;23.10;102059.00;;;;4996222;28;20206;-79
2021/09/05 08:31:27;;;;;;;9.10;4.80;;;;;23.20;102058.00;;;;5008283;28;20685;-78
2021/09/05 08:33:56;;;;;;;7.65;5.22;;;;;23.30;102063.00;;;;5005858;28;20229;-78
2021/09/05 08:36:24;;;;;;;5.50;4.10;;;;;23.40;102059.00;;;;5002897;28;20284;-78
2021/09/05 08:38:52;;;;;;;7.93;5.32;;;;;23.50;102069.00;;;;4990285;28;20201;-78
2021/09/05 08:41:20;;;;;;;10.73;5.70;;;;;23.60;102069.00;;;;4998696;28;20208;-77
2021/09/05 08:43:47;;;;;;;9.68;5.35;;;;;23.70;102069.00;;;;5006610;28;20208;-78
2021/09/05 08:46:15;;;;;;;7.22;4.53;;;;;23.80;102071.00;;;;5004544;28;20207;-77
2021/09/05 08:48:44;;;;;;;9.15;5.05;;;;;23.90;102075.00;;;;5007232;28;20196;-78
2021/09/05 08:51:12;;;;;;;7.93;5.03;;;;;24.00;102068.00;;;;5007421;28;20212;-77
2021/09/05 08:53:40;;;;;;;8.93;4.63;;;;;24.20;102066.00;;;;5007938;28;20225;-78
2021/09/05 08:56:09;;;;;;;8.32;4.53;;;;;24.20;102067.00;;;;5008013;28;20208;-78
2021/09/05 08:58:36;;;;;;;8.23;4.50;;;;;24.30;102064.00;;;;5008028;28;20216;-78
2021/09/05 09:01:18;;;;;;;6.55;5.10;;;;;24.40;102056.00;;;;5007299;28;20201;-76
2021/09/05 09:03:46;;;;;;;8.13;4.30;;;;;24.60;102059.00;;;;5006226;28;20201;-77
2021/09/05 09:06:19;;;;;;;8.70;4.88;;;;;24.60;102060.00;;;;5006307;28;20196;-77
2021/09/05 09:08:56;;;;;;;7.15;4.53;;;;;24.70;102059.00;;;;5005613;28;20227;-77
2021/09/05 09:11:25;;;;;;;6.63;4.00;;;;;24.90;102061.00;;;;5007874;28;21130;-77
2021/09/05 09:13:56;;;;;;;6.90;4.13;;;;;25.00;102057.00;;;;5005508;28;20243;-78
2021/09/05 09:16:36;;;;;;;6.78;4.28;;;;;25.00;102067.00;;;;4998402;28;20719;-77
2021/09/05 09:19:04;;;;;;;5.30;3.97;;;;;25.20;102072.00;;;;5000047;28;20263;-77
2021/09/05 09:21:38;;;;;;;7.18;4.10;;;;;25.30;102069.00;;;;5006819;28;20605;-77
2021/09/05 09:24:17;;;;;;;8.75;5.03;;;;;25.40;102068.00;;;;5009737;28;20278;-77
2021/09/05 09:26:58;;;;;;;5.38;3.95;;;;;25.50;102068.00;;;;5007055;28;20243;-77
2021/09/05 09:29:25;;;;;;;7.03;4.10;;;;;25.70;102063.00;;;;5011844;28;20196;-77
2021/09/05 09:32:01;;;;;;;7.95;4.88;;;;;25.70;102068.00;;;;5010888;28;20232;-76
2021/09/05 09:34:29;;;;;;;6.40;4.40;;;;;25.90;102073.00;;;;5009959;28;20224;-78
2021/09/05 09:36:58;;;;;;;6.38;4.40;;;;;26.00;102073.00;;;;4993831;28;20580;-78
2021/09/05 09:39:27;;;;;;;6.38;4.53;;;;;26.10;102069.00;;;;5010560;28;20204;-79
2021/09/05 09:41:56;;;;;;;6.28;3.92;;;;;26.20;102073.00;;;;5010717;28;20208;-78
2021/09/05 09:44:29;;;;;;;6.13;4.47;;;;;26.30;102080.00;;;;5005900;28;20241;-79
2021/09/05 09:47:11;;;;;;;5.60;3.83;;;;;26.30;102079.00;;;;5010463;28;20228;-78
2021/09/05 09:49:49;;;;;;;5.72;4.22;;;;;26.40;102085.00;;;;5011254;28;20197;-78
2021/09/05 09:52:18;;;;;;;5.13;4.07;;;;;26.60;102090.00;;;;5011510;28;20201;-78
2021/09/05 09:54:46;;;;;;;5.20;3.90;;;;;26.70;102079.00;;;;5007056;28;20225;-78
2021/09/05 09:57:14;;;;;;;7.13;4.10;;;;;26.80;102083.00;;;;4993378;28;20197;-78
2021/09/05 09:59:42;;;;;;;5.88;4.22;;;;;26.90;102071.00;;;;5010692;28;20212;-79
2021/09/05 10:02:17;;;;;;;7.95;4.57;;;;;26.90;102079.00;;;;5009748;28;20201;-78
2021/09/05 10:04:47;;;;;;;7.28;4.13;;;;;27.10;102063.00;;;;5003964;28;20266;-78
2021/09/05 10:07:17;;;;;;;5.93;3.88;;;;;27.20;102077.00;;;;4992591;28;20217;-78
2021/09/05 10:09:45;;;;;;;8.93;4.03;;;;;27.30;102079.00;;;;5009691;28;20697;-78
2021/09/05 10:12:16;;;;;;;6.97;4.22;;;;;27.40;102075.00;;;;5010559;28;20220;-78
2021/09/05 10:14:49;;;;;;;10.45;3.60;;;;;27.50;102068.00;;;;5009834;28;20232;-78
2021/09/05 10:17:18;;;;;;;6.90;3.92;;;;;27.60;102076.00;;;;5009343;28;20845;-77
2021/09/05 10:19:46;;;;;;;7.88;4.28;;;;;27.70;102074.00;;;;5010440;28;20235;-78
2021/09/05 10:22:13;;;;;;;4.68;3.75;;;;;27.80;102076.00;;;;5009947;28;20965;-78
2021/09/05 10:24:44;;;;;;;6.15;4.10;;;;;27.90;102079.00;;;;5005035;28;20193;-78
2021/09/05 10:27:11;;;;;;;7.55;4.00;;;;;28.00;102077.00;;;;5009512;28;20201;-78
2021/09/05 10:30:02;;;;;;;4.97;3.60;;;;;28.10;102082.00;;;;5009203;28;20690;-78
2021/09/05 10:32:45;;;;;;;9.43;4.35;;;;;28.10;102069.00;;;;5009419;28;20609;-78
2021/09/05 10:35:30;;;;;;;6.18;3.92;;;;;28.20;102067.00;;;;5008856;28;20220;-78
2021/09/05 10:38:21;;;;;;;8.13;4.00;;;;;28.30;102077.00;;;;5009298;28;20564;-78
2021/09/05 10:40:53;;;;;;;5.53;4.15;;;;;28.40;102071.00;;;;5009788;28;20213;-78
2021/09/05 10:43:22;;;;;;;6.47;4.28;;;;;28.50;102064.00;;;;4998103;28;20960;-78
2021/09/05 10:45:51;;;;;;;5.18;3.83;;;;;28.60;102070.00;;;;4997779;28;20667;-78
2021/09/05 10:48:34;;;;;;;5.35;3.67;;;;;28.60;102071.00;;;;5008624;28;20578;-78
2021/09/05 10:51:12;;;;;;;5.45;3.78;;;;;28.70;102058.00;;;;4995314;28;20193;-78
2021/09/05 10:53:50;;;;;;;4.57;3.65;;;;;28.70;102062.00;;;;5009808;28;20196;-78
2021/09/05 10:56:19;;;;;;;4.45;3.35;;;;;28.90;102068.00;;;;5009283;28;20307;-78
2021/09/05 10:58:53;;;;;;;5.30;3.90;;;;;28.90;102068.00;;;;5009442;28;20201;-78
2021/09/05 11:01:31;;;;;;;6.45;4.28;;;;;28.80;102056.00;;;;4997784;28;20200;-78
2021/09/05 11:04:42;;;;;;;5.47;4.03;;;;;28.80;102065.00;;;;5009577;28;20228;-78
2021/09/05 11:07:32;;;;;;;4.93;3.60;;;;;29.00;102064.00;;;;5006748;28;20583;-78
2021/09/05 11:09:59;;;;;;;4.93;3.47;;;;;29.10;102058.00;;;;5008747;28;20213;-78
2021/09/05 11:12:45;;;;;;;5.03;3.35;;;;;29.00;102065.00;;;;5009286;28;20193;-78
2021/09/05 11:15:19;;;;;;;3.35;2.78;;;;;29.20;102056.00;;;;5005116;28;20256;-78
2021/09/05 11:17:54;;;;;;;6.45;3.60;;;;;29.20;102054.00;;;;5005705;28;20208;-78
2021/09/05 11:20:23;;;;;;;5.13;3.92;;;;;29.30;102055.00;;;;5009538;28;20228;-78
2021/09/05 11:22:50;;;;;;;5.80;4.13;;;;;29.40;102055.00;;;;5010000;28;20217;-78
2021/09/05 11:25:26;;;;;;;7.05;3.85;;;;;29.40;102050.00;;;;5005573;28;20205;-78
2021/09/05 11:28:01;;;;;;;6.07;4.05;;;;;29.40;102053.00;;;;4994552;28;21003;-79
2021/09/05 11:30:32;;;;;;;6.50;3.63;;;;;29.50;102058.00;;;;5003735;28;20395;-78
2021/09/05 11:33:02;;;;;;;5.85;3.65;;;;;29.50;102052.00;;;;4995563;28;20196;-78
2021/09/05 11:35:37;;;;;;;9.50;4.82;;;;;29.50;102055.00;;;;5008864;28;20220;-78
2021/09/05 11:38:04;;;;;;;5.70;3.90;;;;;29.60;102053.00;;;;5007222;28;20209;-78
2021/09/05 11:40:32;;;;;;;5.07;3.55;;;;;29.60;102059.00;;;;5009139;28;20200;-78
2021/09/05 11:42:59;;;;;;;7.93;3.85;;;;;29.60;102053.00;;;;5009510;28;20634;-78
2021/09/05 11:45:28;;;;;;;5.10;3.83;;;;;29.50;102054.00;;;;4998133;28;20200;-79
2021/09/05 11:48:02;;;;;;;5.97;3.65;;;;;29.40;102056.00;;;;5006620;28;20231;-79
2021/09/05 11:50:29;;;;;;;4.90;3.53;;;;;29.50;102052.00;;;;5003592;28;20193;-78
2021/09/05 11:52:58;;;;;;;5.55;4.22;;;;;29.50;102049.00;;;;5009770;28;20205;-79
2021/09/05 11:55:26;;;;;;;4.68;3.50;;;;;29.50;102051.00;;;;5009138;28;20664;-79
2021/09/05 11:57:56;;;;;;;5.20;4.03;;;;;29.50;102048.00;;;;5008729;28;20211;-79
2021/09/05 12:00:32;;;;;;;5.85;3.70;;;;;29.40;102056.00;;;;5008230;28;20201;-78
2021/09/05 12:03:00;;;;;;;6.63;4.25;;;;;29.50;102057.00;;;;5008047;28;20212;-78
2021/09/05 12:05:29;;;;;;;10.57;4.80;;;;;29.50;102060.00;;;;5007907;28;20211;-79
2021/09/05 12:07:57;;;;;;;6.47;4.57;;;;;29.50;102054.00;;;;5007202;28;20212;-78
2021/09/05 12:10:26;;;;;;;4.78;3.47;;;;;29.50;102065.00;;;;4995134;28;20200;-79
2021/09/05 12:13:05;;;;;;;5.65;3.70;;;;;29.50;102065.00;;;;5008329;28;20205;-79
2021/09/05 12:15:38;;;;;;;4.20;3.20;;;;;29.50;102069.00;;;;5007988;28;20251;-79
2021/09/05 12:18:17;;;;;;;5.55;4.10;;;;;29.50;102070.00;;;;5007605;28;20234;-79